Time;durP1;ratioP1;P1;durP2;ratioP2;P2;SDS_P1;SDS_P2;PMS_P1;PMS_P2;Temp;Humidity;BMP_temperature;BMP_pressure;BME280_temperature;BME280_humidity;BME280_pressure;Samples;Min_cycle;Max_cycle;Signal;HPM_P1;HPM_P2
2022/07/03 20:10:56;;;;;;;2.80;2.15;;;22.90;99.90;;;;;;5148992;27;20919;-65
2022/07/03 20:13:23;;;;;;;3.85;2.15;;;22.90;99.90;;;;;;5149287;27;20202;-64
2022/07/03 20:15:50;;;;;;;2.75;2.53;;;22.90;99.90;;;;;;5148567;27;20577;-64
2022/07/03 20:18:17;;;;;;;3.13;2.83;;;23.00;99.90;;;;;;5142943;27;20650;-65
2022/07/03 20:20:44;;;;;;;3.90;3.50;;;23.00;99.90;;;;;;5146048;27;20201;-64
2022/07/03 20:23:11;;;;;;;4.50;2.80;;;23.00;99.90;;;;;;5149927;27;20232;-63
2022/07/03 20:25:38;;;;;;;5.93;3.60;;;23.00;99.90;;;;;;5145949;27;20213;-64
2022/07/03 20:28:07;;;;;;;5.50;3.58;;;22.90;99.90;;;;;;5149616;27;20206;-64
2022/07/03 20:30:37;;;;;;;2.47;2.10;;;23.00;99.90;;;;;;5145221;27;20227;-65
2022/07/03 20:33:05;;;;;;;2.75;2.45;;;23.00;99.90;;;;;;5150732;27;20287;-66
2022/07/03 20:35:33;;;;;;;4.25;3.20;;;23.00;99.90;;;;;;5150261;27;20221;-67
2022/07/03 20:38:00;;;;;;;4.30;2.42;;;22.90;99.90;;;;;;5150664;27;20612;-69
2022/07/03 20:40:27;;;;;;;2.03;1.92;;;23.00;99.90;;;;;;5150185;27;20203;-69
2022/07/03 20:42:55;;;;;;;2.58;2.28;;;22.90;99.90;;;;;;5144388;27;20207;-65
2022/07/03 20:45:25;;;;;;;5.07;2.35;;;22.90;99.90;;;;;;5145584;27;20541;-65
2022/07/03 20:47:52;;;;;;;3.25;2.22;;;22.90;99.90;;;;;;5148748;27;20291;-68
2022/07/03 20:50:19;;;;;;;2.88;2.25;;;22.90;99.90;;;;;;5142435;27;20226;-65
2022/07/03 20:52:49;;;;;;;2.90;2.40;;;22.80;99.90;;;;;;5148904;27;20325;-68
2022/07/03 20:55:16;;;;;;;5.13;2.95;;;22.80;99.90;;;;;;5145967;27;20207;-66
2022/07/03 20:57:43;;;;;;;2.83;2.50;;;22.80;99.90;;;;;;5144340;27;20661;-66
2022/07/03 21:00:11;;;;;;;3.92;2.60;;;22.80;99.90;;;;;;5143465;27;20207;-66
2022/07/03 21:02:39;;;;;;;2.85;2.30;;;22.80;99.90;;;;;;5145963;27;20198;-65
2022/07/03 21:05:07;;;;;;;3.30;2.80;;;22.80;99.90;;;;;;5144922;27;20211;-65
2022/07/03 21:07:35;;;;;;;7.43;4.72;;;22.80;99.90;;;;;;5142790;27;20219;-65
2022/07/03 21:10:01;;;;;;;3.05;2.75;;;22.70;99.90;;;;;;5127209;28;20296;-66
2022/07/03 21:12:28;;;;;;;3.47;3.17;;;22.70;99.90;;;;;;5127533;28;20210;-66
2022/07/03 21:14:55;;;;;;;2.90;2.67;;;22.80;99.90;;;;;;5113510;28;20208;-65
2022/07/03 21:17:22;;;;;;;3.03;2.40;;;22.70;99.90;;;;;;5127296;28;20214;-65
2022/07/03 21:19:50;;;;;;;2.78;2.20;;;22.70;99.90;;;;;;5126750;28;20815;-66
2022/07/03 21:22:17;;;;;;;2.95;2.70;;;22.70;99.90;;;;;;5110424;28;20201;-67
2022/07/03 21:24:44;;;;;;;3.08;2.45;;;22.70;99.90;;;;;;5108259;28;20204;-66
2022/07/03 21:27:13;;;;;;;5.10;2.58;;;22.70;99.90;;;;;;5110932;28;20219;-64
2022/07/03 21:29:40;;;;;;;3.42;2.53;;;22.70;99.90;;;;;;5109163;28;20249;-65
2022/07/03 21:32:07;;;;;;;3.05;2.20;;;22.70;99.90;;;;;;5113424;28;20212;-65
2022/07/03 21:34:34;;;;;;;3.92;2.60;;;22.70;99.90;;;;;;5114800;28;20613;-65
2022/07/03 21:37:02;;;;;;;3.55;2.95;;;22.70;99.90;;;;;;5112012;28;20216;-64
2022/07/03 21:39:29;;;;;;;3.63;3.22;;;22.70;99.90;;;;;;5114440;28;20219;-66
2022/07/03 21:41:57;;;;;;;3.00;2.55;;;22.70;99.90;;;;;;5112739;28;20203;-64
2022/07/03 21:44:24;;;;;;;4.22;3.55;;;22.70;99.90;;;;;;5111300;28;20195;-65
2022/07/03 21:46:51;;;;;;;3.67;2.83;;;22.70;99.90;;;;;;5108236;28;20208;-65
2022/07/03 21:49:18;;;;;;;3.45;2.88;;;22.70;99.90;;;;;;5113507;28;20633;-65
2022/07/03 21:51:45;;;;;;;3.88;3.25;;;22.70;99.90;;;;;;5113267;28;20683;-67
2022/07/03 21:54:14;;;;;;;6.95;4.60;;;22.60;99.90;;;;;;5113737;28;20207;-66
2022/07/03 21:56:44;;;;;;;3.38;3.08;;;22.60;99.90;;;;;;5104933;28;20641;-67
2022/07/03 21:59:11;;;;;;;5.53;3.60;;;22.60;99.90;;;;;;5111381;28;20252;-66
2022/07/03 22:01:37;;;;;;;6.75;4.35;;;22.60;99.90;;;;;;5111131;28;20196;-65
2022/07/03 22:04:05;;;;;;;3.58;3.28;;;22.60;99.90;;;;;;5113144;28;20232;-64
2022/07/03 22:06:31;;;;;;;6.22;4.95;;;22.60;99.90;;;;;;5113258;28;20212;-64
2022/07/03 22:08:58;;;;;;;5.68;4.25;;;22.60;99.90;;;;;;5110116;27;20255;-65
2022/07/03 22:11:26;;;;;;;2.83;2.55;;;22.50;99.90;;;;;;5110641;28;20635;-65
2022/07/03 22:13:53;;;;;;;4.13;2.58;;;22.60;99.90;;;;;;5113264;28;20211;-64
2022/07/03 22:16:20;;;;;;;5.13;3.70;;;22.50;99.90;;;;;;5111957;28;20212;-64
2022/07/03 22:18:47;;;;;;;4.38;3.33;;;22.50;99.90;;;;;;5112905;28;20214;-64
2022/07/03 22:21:14;;;;;;;6.47;4.28;;;22.50;99.90;;;;;;5112786;28;20204;-64
2022/07/03 22:23:41;;;;;;;5.20;3.10;;;22.50;99.90;;;;;;5112481;28;20569;-65
2022/07/03 22:26:07;;;;;;;6.60;4.88;;;22.40;99.90;;;;;;5109803;28;20578;-65
2022/07/03 22:28:35;;;;;;;3.63;3.00;;;22.40;99.90;;;;;;5111853;28;20567;-64
2022/07/03 22:33:47;;;;;;;3.88;3.45;;;22.40;99.90;;;;;;5111145;28;20268;-65
2022/07/03 22:36:13;;;;;;;2.90;2.70;;;22.30;99.90;;;;;;5112679;28;20215;-65
2022/07/03 22:38:40;;;;;;;2.90;2.67;;;22.30;99.90;;;;;;5112469;28;20200;-64
2022/07/03 22:41:07;;;;;;;3.78;3.47;;;22.30;99.90;;;;;;5109370;28;20199;-65
2022/07/03 22:43:35;;;;;;;5.90;3.95;;;22.30;99.90;;;;;;5110442;28;20204;-65
2022/07/03 22:46:02;;;;;;;3.20;2.90;;;22.30;99.90;;;;;;5112328;28;20208;-66
2022/07/03 22:48:28;;;;;;;6.22;3.97;;;22.30;99.90;;;;;;5112470;28;20215;-66
2022/07/03 22:50:56;;;;;;;5.50;3.30;;;22.20;99.90;;;;;;5112195;28;20780;-65
2022/07/03 22:53:22;;;;;;;3.50;3.20;;;22.20;99.90;;;;;;5111098;28;20204;-64
2022/07/03 22:55:49;;;;;;;3.38;3.05;;;22.20;99.90;;;;;;5110851;28;20215;-66
2022/07/03 22:58:16;;;;;;;3.42;3.13;;;22.20;99.90;;;;;;5110470;28;20204;-65
2022/07/03 23:00:44;;;;;;;3.72;3.42;;;22.10;99.90;;;;;;5112193;28;20195;-65
2022/07/03 23:03:11;;;;;;;9.07;6.60;;;22.10;99.90;;;;;;5112250;28;20238;-65
2022/07/03 23:05:37;;;;;;;5.30;4.50;;;22.00;99.90;;;;;;5111600;28;20210;-66
2022/07/03 23:08:05;;;;;;;5.85;4.22;;;22.00;99.90;;;;;;5112454;28;20232;-65
2022/07/03 23:10:31;;;;;;;3.92;3.42;;;22.00;99.90;;;;;;5109529;28;20773;-65
2022/07/03 23:12:58;;;;;;;4.25;3.85;;;22.00;99.90;;;;;;5110041;28;20675;-66
2022/07/03 23:15:26;;;;;;;7.47;5.07;;;22.00;99.90;;;;;;5111196;28;20204;-65
2022/07/03 23:17:54;;;;;;;5.53;4.30;;;22.00;99.90;;;;;;5110936;28;20203;-64
2022/07/03 23:20:21;;;;;;;5.07;4.32;;;21.90;99.90;;;;;;5111546;28;20598;-64
2022/07/03 23:22:47;;;;;;;5.93;4.75;;;22.00;99.90;;;;;;5109396;28;20208;-65
2022/07/03 23:25:14;;;;;;;5.40;3.92;;;21.90;99.90;;;;;;5111381;28;20707;-65
2022/07/03 23:27:41;;;;;;;3.97;3.63;;;21.90;99.90;;;;;;5111585;28;20212;-65
2022/07/03 23:30:08;;;;;;;5.93;4.50;;;21.90;99.90;;;;;;5111459;28;20220;-65
2022/07/03 23:32:36;;;;;;;5.53;4.68;;;21.90;99.90;;;;;;5112005;28;20215;-64
2022/07/03 23:35:04;;;;;;;4.45;4.05;;;21.90;99.90;;;;;;5110165;28;20914;-65
2022/07/03 23:37:31;;;;;;;7.57;5.60;;;21.80;99.90;;;;;;5111319;28;20701;-65
2022/07/03 23:39:58;;;;;;;6.57;5.13;;;21.90;99.90;;;;;;5110711;28;20202;-65
2022/07/03 23:42:24;;;;;;;4.32;3.92;;;21.90;99.90;;;;;;5111497;28;20202;-65
2022/07/03 23:44:51;;;;;;;4.80;4.40;;;21.80;99.90;;;;;;5110880;28;20212;-65
2022/07/03 23:47:18;;;;;;;8.40;6.35;;;21.80;99.90;;;;;;5111687;28;20207;-65
2022/07/03 23:52:30;;;;;;;5.72;4.63;;;21.60;99.90;;;;;;5097341;28;20198;-65
2022/07/03 23:54:57;;;;;;;4.82;4.40;;;21.60;99.90;;;;;;5110310;28;20200;-65
2022/07/03 23:57:24;;;;;;;5.15;4.72;;;21.60;99.90;;;;;;5110443;28;20260;-64
2022/07/03 23:59:50;;;;;;;7.53;6.00;;;21.50;99.90;;;;;;5111190;28;20583;-66
